Terminal Aerodrome Forecast
Issued by NWS

Home | Current Version | Previous Version | Text Only | Print | Product List | Glossary On
Versions: 1 2 3 4 5 6 7 8 9 10 11 12 13 14
000
FTUS44 KTSA 260520
TAFMLC
TAF
KMLC 260520Z 2606/2706 VRB03KT P6SM FEW040 SCT250
     FM261400 15007KT P6SM SCT250
     FM261900 16012KT P6SM BKN050 PROB30 2622/2701 4SM -TSRA
      BKN040CB
     FM270100 15010KT P6SM VCTS BKN045CB PROB30 2701/2704 3SM TSRA
      BKN030CB=

USA.gov is the U.S. government's official web portal to all federal, state and local government web resources and services.